Login to view Products
 
Saturday, April 13, 2024 (02:36 UTC)
Zayed International Airport
Last Updated: 13-Apr-2024 (02:35Z)
Wind Dir/Speed: NW at 05 kt
Temperature: 26.0°C
Rel. Humidity: 56 %
Pressure: 1007.3 hPa
Visibility: 10000 m
ACTUALS:
  • METAR OMAA 130200Z 32006KT CAVOK 26/16 Q1007 NOSIG
  • TAF OMAA 122300Z 1300/1406 33011KT 8000 NSC PROB30 TEMPO 1314/1403 VRB15G25KT 4000 SHRA FEW040TCU BECMG 1317/1319 VRB02KT BECMG 1405/1406 36008KT=
02-- D:\Input Parser\Destinations\Final\23\OMAA_TAF.txt-- 12/04/2024-- 13/04/2024-- 3